sensor_id;sensor_type;location;lat;lon;timestamp;P1;durP1;ratioP1;P2;durP2;ratioP2
55879;SDS011;41802;51.564;-1.838;2023-07-30T00:01:15;8.50;;;1.30;;
55879;SDS011;41802;51.564;-1.838;2023-07-30T00:03:44;10.17;;;1.60;;
55879;SDS011;41802;51.564;-1.838;2023-07-30T00:06:11;8.98;;;1.83;;
55879;SDS011;41802;51.564;-1.838;2023-07-30T00:08:46;7.82;;;1.45;;
55879;SDS011;41802;51.564;-1.838;2023-07-30T00:11:15;12.02;;;1.75;;
55879;SDS011;41802;51.564;-1.838;2023-07-30T00:13:43;9.38;;;1.00;;
55879;SDS011;41802;51.564;-1.838;2023-07-30T00:16:10;9.60;;;1.40;;
55879;SDS011;41802;51.564;-1.838;2023-07-30T00:18:38;8.95;;;1.65;;
55879;SDS011;41802;51.564;-1.838;2023-07-30T00:21:06;7.72;;;1.55;;
55879;SDS011;41802;51.564;-1.838;2023-07-30T00:23:33;6.38;;;1.13;;
55879;SDS011;41802;51.564;-1.838;2023-07-30T00:26:03;7.70;;;1.52;;
55879;SDS011;41802;51.564;-1.838;2023-07-30T00:28:30;12.87;;;1.63;;
55879;SDS011;41802;51.564;-1.838;2023-07-30T00:30:58;10.15;;;1.70;;
55879;SDS011;41802;51.564;-1.838;2023-07-30T00:33:26;7.60;;;1.45;;
55879;SDS011;41802;51.564;-1.838;2023-07-30T00:35:54;9.00;;;1.23;;
55879;SDS011;41802;51.564;-1.838;2023-07-30T00:38:21;6.75;;;1.10;;
55879;SDS011;41802;51.564;-1.838;2023-07-30T00:40:50;13.47;;;1.63;;
55879;SDS011;41802;51.564;-1.838;2023-07-30T00:43:19;7.30;;;1.10;;
55879;SDS011;41802;51.564;-1.838;2023-07-30T00:45:46;7.30;;;1.20;;
55879;SDS011;41802;51.564;-1.838;2023-07-30T00:48:14;5.45;;;0.90;;
55879;SDS011;41802;51.564;-1.838;2023-07-30T00:50:42;8.23;;;1.30;;
55879;SDS011;41802;51.564;-1.838;2023-07-30T00:53:11;7.57;;;1.30;;
55879;SDS011;41802;51.564;-1.838;2023-07-30T00:55:39;9.23;;;1.30;;
55879;SDS011;41802;51.564;-1.838;2023-07-30T00:58:07;7.97;;;1.13;;
55879;SDS011;41802;51.564;-1.838;2023-07-30T01:00:37;6.97;;;0.90;;
55879;SDS011;41802;51.564;-1.838;2023-07-30T01:03:06;5.78;;;1.13;;
55879;SDS011;41802;51.564;-1.838;2023-07-30T01:05:33;7.00;;;1.10;;
55879;SDS011;41802;51.564;-1.838;2023-07-30T01:08:01;7.70;;;1.27;;
55879;SDS011;41802;51.564;-1.838;2023-07-30T01:10:29;8.52;;;1.20;;
55879;SDS011;41802;51.564;-1.838;2023-07-30T01:12:58;8.20;;;1.35;;
55879;SDS011;41802;51.564;-1.838;2023-07-30T01:15:26;10.82;;;1.23;;
55879;SDS011;41802;51.564;-1.838;2023-07-30T01:17:56;9.13;;;1.40;;
55879;SDS011;41802;51.564;-1.838;2023-07-30T01:20:23;7.93;;;1.00;;
55879;SDS011;41802;51.564;-1.838;2023-07-30T01:22:53;8.48;;;1.15;;
55879;SDS011;41802;51.564;-1.838;2023-07-30T01:25:21;12.48;;;2.10;;
55879;SDS011;41802;51.564;-1.838;2023-07-30T01:27:51;11.27;;;1.33;;
55879;SDS011;41802;51.564;-1.838;2023-07-30T01:30:21;9.47;;;1.73;;
55879;SDS011;41802;51.564;-1.838;2023-07-30T01:32:50;12.38;;;1.77;;
55879;SDS011;41802;51.564;-1.838;2023-07-30T01:35:19;8.57;;;1.30;;
55879;SDS011;41802;51.564;-1.838;2023-07-30T01:37:48;11.45;;;0.90;;
55879;SDS011;41802;51.564;-1.838;2023-07-30T01:40:18;12.88;;;1.48;;
55879;SDS011;41802;51.564;-1.838;2023-07-30T01:42:46;9.17;;;1.07;;
55879;SDS011;41802;51.564;-1.838;2023-07-30T01:45:14;8.57;;;1.35;;
55879;SDS011;41802;51.564;-1.838;2023-07-30T01:47:42;7.75;;;1.17;;
55879;SDS011;41802;51.564;-1.838;2023-07-30T01:50:11;9.65;;;1.17;;
55879;SDS011;41802;51.564;-1.838;2023-07-30T01:52:38;6.35;;;1.60;;
55879;SDS011;41802;51.564;-1.838;2023-07-30T01:55:06;6.73;;;1.20;;
55879;SDS011;41802;51.564;-1.838;2023-07-30T01:57:36;10.73;;;1.38;;
55879;SDS011;41802;51.564;-1.838;2023-07-30T02:00:04;7.97;;;1.35;;
55879;SDS011;41802;51.564;-1.838;2023-07-30T02:02:32;10.85;;;1.98;;
55879;SDS011;41802;51.564;-1.838;2023-07-30T02:05:02;8.18;;;1.58;;
55879;SDS011;41802;51.564;-1.838;2023-07-30T02:07:30;9.73;;;1.70;;
55879;SDS011;41802;51.564;-1.838;2023-07-30T02:09:58;9.65;;;1.40;;
55879;SDS011;41802;51.564;-1.838;2023-07-30T02:12:26;13.05;;;1.20;;
55879;SDS011;41802;51.564;-1.838;2023-07-30T02:14:55;12.00;;;1.60;;
55879;SDS011;41802;51.564;-1.838;2023-07-30T02:17:23;7.22;;;1.17;;
55879;SDS011;41802;51.564;-1.838;2023-07-30T02:19:51;10.37;;;2.07;;
55879;SDS011;41802;51.564;-1.838;2023-07-30T02:22:18;8.82;;;2.25;;
55879;SDS011;41802;51.564;-1.838;2023-07-30T02:24:46;9.98;;;1.13;;
55879;SDS011;41802;51.564;-1.838;2023-07-30T02:27:14;11.70;;;1.35;;
55879;SDS011;41802;51.564;-1.838;2023-07-30T02:29:41;9.68;;;1.60;;
55879;SDS011;41802;51.564;-1.838;2023-07-30T02:32:11;11.57;;;2.03;;
55879;SDS011;41802;51.564;-1.838;2023-07-30T02:34:39;13.05;;;1.63;;
55879;SDS011;41802;51.564;-1.838;2023-07-30T02:37:06;9.05;;;1.52;;
55879;SDS011;41802;51.564;-1.838;2023-07-30T02:39:36;13.45;;;1.65;;
55879;SDS011;41802;51.564;-1.838;2023-07-30T02:42:04;7.68;;;1.42;;
55879;SDS011;41802;51.564;-1.838;2023-07-30T02:44:32;10.60;;;1.30;;
55879;SDS011;41802;51.564;-1.838;2023-07-30T02:46:59;9.88;;;1.13;;
55879;SDS011;41802;51.564;-1.838;2023-07-30T02:49:29;8.65;;;1.45;;
55879;SDS011;41802;51.564;-1.838;2023-07-30T02:51:57;11.90;;;1.55;;
55879;SDS011;41802;51.564;-1.838;2023-07-30T02:54:32;8.57;;;1.40;;
55879;SDS011;41802;51.564;-1.838;2023-07-30T02:57:01;11.87;;;1.23;;
55879;SDS011;41802;51.564;-1.838;2023-07-30T02:59:29;10.35;;;1.83;;
55879;SDS011;41802;51.564;-1.838;2023-07-30T03:01:57;11.63;;;2.00;;
55879;SDS011;41802;51.564;-1.838;2023-07-30T03:04:24;8.80;;;1.70;;
55879;SDS011;41802;51.564;-1.838;2023-07-30T03:06:53;9.20;;;1.58;;
55879;SDS011;41802;51.564;-1.838;2023-07-30T03:09:21;10.53;;;1.73;;
55879;SDS011;41802;51.564;-1.838;2023-07-30T03:11:49;11.43;;;1.58;;
55879;SDS011;41802;51.564;-1.838;2023-07-30T03:14:17;11.20;;;1.77;;
55879;SDS011;41802;51.564;-1.838;2023-07-30T03:16:47;14.30;;;1.88;;
55879;SDS011;41802;51.564;-1.838;2023-07-30T03:19:14;9.73;;;1.67;;
55879;SDS011;41802;51.564;-1.838;2023-07-30T03:21:42;7.30;;;1.83;;
55879;SDS011;41802;51.564;-1.838;2023-07-30T03:24:11;12.32;;;2.28;;
55879;SDS011;41802;51.564;-1.838;2023-07-30T03:26:39;11.25;;;1.30;;
55879;SDS011;41802;51.564;-1.838;2023-07-30T03:29:07;10.70;;;1.98;;
55879;SDS011;41802;51.564;-1.838;2023-07-30T03:31:35;8.93;;;1.50;;
55879;SDS011;41802;51.564;-1.838;2023-07-30T03:34:03;9.80;;;1.53;;
55879;SDS011;41802;51.564;-1.838;2023-07-30T03:36:31;9.55;;;1.38;;
55879;SDS011;41802;51.564;-1.838;2023-07-30T03:38:58;8.98;;;1.48;;
55879;SDS011;41802;51.564;-1.838;2023-07-30T03:41:27;13.35;;;1.98;;
55879;SDS011;41802;51.564;-1.838;2023-07-30T03:43:55;13.95;;;1.75;;
55879;SDS011;41802;51.564;-1.838;2023-07-30T03:46:23;10.87;;;1.57;;
55879;SDS011;41802;51.564;-1.838;2023-07-30T03:48:50;7.55;;;1.67;;
55879;SDS011;41802;51.564;-1.838;2023-07-30T03:51:18;12.25;;;1.85;;
55879;SDS011;41802;51.564;-1.838;2023-07-30T03:53:46;12.80;;;2.15;;
55879;SDS011;41802;51.564;-1.838;2023-07-30T03:56:13;11.60;;;2.38;;
55879;SDS011;41802;51.564;-1.838;2023-07-30T03:58:43;15.03;;;1.50;;
55879;SDS011;41802;51.564;-1.838;2023-07-30T04:01:10;11.13;;;2.28;;
55879;SDS011;41802;51.564;-1.838;2023-07-30T04:03:55;11.35;;;1.88;;
55879;SDS011;41802;51.564;-1.838;2023-07-30T04:06:23;12.63;;;1.52;;
55879;SDS011;41802;51.564;-1.838;2023-07-30T04:08:51;9.85;;;1.42;;
55879;SDS011;41802;51.564;-1.838;2023-07-30T04:11:19;13.17;;;1.90;;
55879;SDS011;41802;51.564;-1.838;2023-07-30T04:13:48;9.93;;;1.45;;
55879;SDS011;41802;51.564;-1.838;2023-07-30T04:16:16;11.40;;;1.63;;
55879;SDS011;41802;51.564;-1.838;2023-07-30T04:18:43;11.32;;;2.05;;
55879;SDS011;41802;51.564;-1.838;2023-07-30T04:21:11;18.30;;;1.70;;
55879;SDS011;41802;51.564;-1.838;2023-07-30T04:23:40;9.67;;;1.30;;
55879;SDS011;41802;51.564;-1.838;2023-07-30T04:26:07;14.77;;;2.10;;
55879;SDS011;41802;51.564;-1.838;2023-07-30T04:28:35;13.93;;;2.00;;
55879;SDS011;41802;51.564;-1.838;2023-07-30T04:31:04;10.15;;;1.42;;
55879;SDS011;41802;51.564;-1.838;2023-07-30T04:33:32;16.02;;;2.00;;
55879;SDS011;41802;51.564;-1.838;2023-07-30T04:36:00;11.20;;;1.63;;
55879;SDS011;41802;51.564;-1.838;2023-07-30T04:38:28;9.13;;;2.10;;
55879;SDS011;41802;51.564;-1.838;2023-07-30T04:40:57;11.43;;;1.80;;
55879;SDS011;41802;51.564;-1.838;2023-07-30T04:43:25;10.18;;;1.40;;
55879;SDS011;41802;51.564;-1.838;2023-07-30T04:45:53;15.70;;;2.45;;
55879;SDS011;41802;51.564;-1.838;2023-07-30T04:48:22;12.43;;;1.80;;
55879;SDS011;41802;51.564;-1.838;2023-07-30T04:50:49;10.82;;;1.92;;
55879;SDS011;41802;51.564;-1.838;2023-07-30T04:53:21;12.15;;;1.85;;
55879;SDS011;41802;51.564;-1.838;2023-07-30T04:55:54;13.00;;;1.30;;
55879;SDS011;41802;51.564;-1.838;2023-07-30T04:58:22;11.02;;;2.10;;
55879;SDS011;41802;51.564;-1.838;2023-07-30T05:00:49;10.27;;;1.47;;
55879;SDS011;41802;51.564;-1.838;2023-07-30T05:03:17;9.50;;;1.70;;
55879;SDS011;41802;51.564;-1.838;2023-07-30T05:05:46;14.68;;;1.95;;
55879;SDS011;41802;51.564;-1.838;2023-07-30T05:08:14;14.35;;;2.40;;
55879;SDS011;41802;51.564;-1.838;2023-07-30T05:10:42;10.45;;;1.30;;
55879;SDS011;41802;51.564;-1.838;2023-07-30T05:13:10;9.83;;;1.40;;
55879;SDS011;41802;51.564;-1.838;2023-07-30T05:15:39;9.20;;;2.17;;
55879;SDS011;41802;51.564;-1.838;2023-07-30T05:18:07;8.98;;;1.55;;
55879;SDS011;41802;51.564;-1.838;2023-07-30T05:20:35;11.65;;;2.13;;
55879;SDS011;41802;51.564;-1.838;2023-07-30T05:23:04;13.57;;;2.20;;
55879;SDS011;41802;51.564;-1.838;2023-07-30T05:25:35;13.57;;;1.70;;
55879;SDS011;41802;51.564;-1.838;2023-07-30T05:28:03;9.10;;;1.58;;
55879;SDS011;41802;51.564;-1.838;2023-07-30T05:30:30;16.25;;;1.83;;
55879;SDS011;41802;51.564;-1.838;2023-07-30T05:32:58;11.38;;;1.90;;
55879;SDS011;41802;51.564;-1.838;2023-07-30T05:35:26;13.38;;;2.50;;
55879;SDS011;41802;51.564;-1.838;2023-07-30T05:37:57;9.87;;;2.03;;
55879;SDS011;41802;51.564;-1.838;2023-07-30T05:40:26;15.25;;;2.58;;
55879;SDS011;41802;51.564;-1.838;2023-07-30T05:42:54;15.77;;;2.47;;
55879;SDS011;41802;51.564;-1.838;2023-07-30T05:45:21;11.90;;;1.23;;
55879;SDS011;41802;51.564;-1.838;2023-07-30T05:47:49;8.77;;;1.40;;
55879;SDS011;41802;51.564;-1.838;2023-07-30T05:50:17;14.57;;;1.37;;
55879;SDS011;41802;51.564;-1.838;2023-07-30T05:52:44;12.98;;;1.30;;
55879;SDS011;41802;51.564;-1.838;2023-07-30T05:55:12;11.23;;;1.65;;
55879;SDS011;41802;51.564;-1.838;2023-07-30T05:57:41;11.48;;;1.30;;
55879;SDS011;41802;51.564;-1.838;2023-07-30T06:00:10;10.40;;;1.35;;
55879;SDS011;41802;51.564;-1.838;2023-07-30T06:02:38;11.57;;;1.30;;
55879;SDS011;41802;51.564;-1.838;2023-07-30T06:05:06;8.30;;;1.60;;
55879;SDS011;41802;51.564;-1.838;2023-07-30T06:07:34;10.68;;;1.30;;
55879;SDS011;41802;51.564;-1.838;2023-07-30T06:10:02;15.32;;;1.60;;
55879;SDS011;41802;51.564;-1.838;2023-07-30T06:12:33;13.18;;;1.90;;
55879;SDS011;41802;51.564;-1.838;2023-07-30T06:15:05;13.70;;;1.63;;
55879;SDS011;41802;51.564;-1.838;2023-07-30T06:17:33;11.50;;;1.77;;
55879;SDS011;41802;51.564;-1.838;2023-07-30T06:20:01;12.85;;;1.60;;
55879;SDS011;41802;51.564;-1.838;2023-07-30T06:22:28;13.98;;;1.75;;
55879;SDS011;41802;51.564;-1.838;2023-07-30T06:24:56;7.10;;;1.08;;
55879;SDS011;41802;51.564;-1.838;2023-07-30T06:27:24;9.23;;;1.30;;
55879;SDS011;41802;51.564;-1.838;2023-07-30T06:29:52;9.18;;;1.40;;
55879;SDS011;41802;51.564;-1.838;2023-07-30T06:32:21;10.93;;;1.67;;
55879;SDS011;41802;51.564;-1.838;2023-07-30T06:34:49;9.88;;;1.50;;
55879;SDS011;41802;51.564;-1.838;2023-07-30T06:37:17;10.15;;;1.95;;
55879;SDS011;41802;51.564;-1.838;2023-07-30T06:39:45;12.60;;;1.57;;
55879;SDS011;41802;51.564;-1.838;2023-07-30T06:42:12;16.02;;;2.15;;
55879;SDS011;41802;51.564;-1.838;2023-07-30T06:44:40;11.27;;;1.55;;
55879;SDS011;41802;51.564;-1.838;2023-07-30T06:47:08;12.48;;;2.15;;
55879;SDS011;41802;51.564;-1.838;2023-07-30T06:49:37;12.23;;;1.60;;
55879;SDS011;41802;51.564;-1.838;2023-07-30T06:52:05;10.40;;;1.40;;
55879;SDS011;41802;51.564;-1.838;2023-07-30T06:54:33;9.95;;;1.45;;
55879;SDS011;41802;51.564;-1.838;2023-07-30T06:57:05;7.72;;;1.25;;
55879;SDS011;41802;51.564;-1.838;2023-07-30T06:59:33;14.40;;;1.42;;
55879;SDS011;41802;51.564;-1.838;2023-07-30T07:02:00;12.13;;;2.05;;
55879;SDS011;41802;51.564;-1.838;2023-07-30T07:04:32;12.40;;;1.73;;
55879;SDS011;41802;51.564;-1.838;2023-07-30T07:07:01;12.07;;;1.83;;
55879;SDS011;41802;51.564;-1.838;2023-07-30T07:09:30;11.35;;;1.23;;
55879;SDS011;41802;51.564;-1.838;2023-07-30T07:11:58;10.05;;;1.30;;
55879;SDS011;41802;51.564;-1.838;2023-07-30T07:14:26;14.02;;;1.75;;
55879;SDS011;41802;51.564;-1.838;2023-07-30T07:16:54;11.00;;;1.70;;
55879;SDS011;41802;51.564;-1.838;2023-07-30T07:19:22;12.88;;;2.28;;
55879;SDS011;41802;51.564;-1.838;2023-07-30T07:21:55;12.02;;;2.20;;
55879;SDS011;41802;51.564;-1.838;2023-07-30T07:24:24;11.35;;;2.25;;
55879;SDS011;41802;51.564;-1.838;2023-07-30T07:26:52;11.43;;;2.55;;
55879;SDS011;41802;51.564;-1.838;2023-07-30T07:29:20;10.87;;;1.90;;
55879;SDS011;41802;51.564;-1.838;2023-07-30T07:31:47;9.32;;;1.40;;
55879;SDS011;41802;51.564;-1.838;2023-07-30T07:34:15;11.45;;;1.65;;
55879;SDS011;41802;51.564;-1.838;2023-07-30T07:36:43;10.10;;;2.15;;
55879;SDS011;41802;51.564;-1.838;2023-07-30T07:39:11;11.85;;;1.73;;
55879;SDS011;41802;51.564;-1.838;2023-07-30T07:41:40;11.73;;;1.90;;
55879;SDS011;41802;51.564;-1.838;2023-07-30T07:44:07;11.70;;;1.92;;
55879;SDS011;41802;51.564;-1.838;2023-07-30T07:46:35;12.55;;;2.22;;
55879;SDS011;41802;51.564;-1.838;2023-07-30T07:49:03;8.73;;;1.55;;
55879;SDS011;41802;51.564;-1.838;2023-07-30T07:51:31;11.07;;;1.38;;
55879;SDS011;41802;51.564;-1.838;2023-07-30T07:53:59;8.77;;;1.50;;
55879;SDS011;41802;51.564;-1.838;2023-07-30T07:56:27;11.43;;;2.17;;
55879;SDS011;41802;51.564;-1.838;2023-07-30T07:58:57;15.45;;;2.55;;
55879;SDS011;41802;51.564;-1.838;2023-07-30T08:01:24;8.98;;;1.38;;
55879;SDS011;41802;51.564;-1.838;2023-07-30T08:03:52;9.77;;;1.85;;
55879;SDS011;41802;51.564;-1.838;2023-07-30T08:06:21;11.37;;;2.43;;
55879;SDS011;41802;51.564;-1.838;2023-07-30T08:08:49;8.63;;;1.52;;
55879;SDS011;41802;51.564;-1.838;2023-07-30T08:11:17;14.43;;;1.83;;
55879;SDS011;41802;51.564;-1.838;2023-07-30T08:13:44;11.32;;;2.03;;
55879;SDS011;41802;51.564;-1.838;2023-07-30T08:16:16;13.48;;;2.28;;
55879;SDS011;41802;51.564;-1.838;2023-07-30T08:18:43;10.40;;;1.93;;
55879;SDS011;41802;51.564;-1.838;2023-07-30T08:21:11;10.02;;;1.77;;
55879;SDS011;41802;51.564;-1.838;2023-07-30T08:23:39;9.35;;;1.92;;
55879;SDS011;41802;51.564;-1.838;2023-07-30T08:26:06;11.93;;;2.17;;
55879;SDS011;41802;51.564;-1.838;2023-07-30T08:28:34;14.38;;;2.25;;
55879;SDS011;41802;51.564;-1.838;2023-07-30T08:31:02;10.77;;;2.00;;
55879;SDS011;41802;51.564;-1.838;2023-07-30T08:33:31;9.57;;;1.92;;
55879;SDS011;41802;51.564;-1.838;2023-07-30T08:35:59;10.57;;;1.42;;
55879;SDS011;41802;51.564;-1.838;2023-07-30T08:38:27;11.45;;;2.10;;
55879;SDS011;41802;51.564;-1.838;2023-07-30T08:40:56;11.88;;;2.03;;
55879;SDS011;41802;51.564;-1.838;2023-07-30T08:43:24;12.83;;;2.53;;
55879;SDS011;41802;51.564;-1.838;2023-07-30T08:45:52;12.13;;;2.42;;
55879;SDS011;41802;51.564;-1.838;2023-07-30T08:48:20;13.73;;;1.70;;
55879;SDS011;41802;51.564;-1.838;2023-07-30T08:50:49;12.82;;;2.92;;
55879;SDS011;41802;51.564;-1.838;2023-07-30T08:53:17;10.25;;;2.20;;
55879;SDS011;41802;51.564;-1.838;2023-07-30T08:55:45;17.37;;;2.50;;
55879;SDS011;41802;51.564;-1.838;2023-07-30T08:58:13;8.88;;;1.95;;
55879;SDS011;41802;51.564;-1.838;2023-07-30T09:00:45;11.88;;;2.30;;
55879;SDS011;41802;51.564;-1.838;2023-07-30T09:03:15;7.88;;;1.63;;
55879;SDS011;41802;51.564;-1.838;2023-07-30T09:05:45;14.05;;;1.88;;
55879;SDS011;41802;51.564;-1.838;2023-07-30T09:08:14;10.60;;;1.80;;
55879;SDS011;41802;51.564;-1.838;2023-07-30T09:10:42;9.07;;;1.42;;
55879;SDS011;41802;51.564;-1.838;2023-07-30T09:13:11;12.05;;;2.53;;
55879;SDS011;41802;51.564;-1.838;2023-07-30T09:15:39;11.35;;;2.20;;
55879;SDS011;41802;51.564;-1.838;2023-07-30T09:18:06;12.52;;;2.95;;
55879;SDS011;41802;51.564;-1.838;2023-07-30T09:20:38;10.33;;;2.43;;
55879;SDS011;41802;51.564;-1.838;2023-07-30T09:23:06;10.02;;;2.33;;
55879;SDS011;41802;51.564;-1.838;2023-07-30T09:25:36;11.77;;;1.77;;
55879;SDS011;41802;51.564;-1.838;2023-07-30T09:28:04;13.85;;;2.10;;
55879;SDS011;41802;51.564;-1.838;2023-07-30T09:30:32;11.20;;;2.05;;
55879;SDS011;41802;51.564;-1.838;2023-07-30T09:33:01;7.63;;;1.70;;
55879;SDS011;41802;51.564;-1.838;2023-07-30T09:35:28;11.15;;;2.03;;
55879;SDS011;41802;51.564;-1.838;2023-07-30T09:38:02;7.35;;;1.60;;
55879;SDS011;41802;51.564;-1.838;2023-07-30T09:40:31;8.90;;;1.52;;
55879;SDS011;41802;51.564;-1.838;2023-07-30T09:43:01;13.07;;;1.70;;
55879;SDS011;41802;51.564;-1.838;2023-07-30T09:45:32;6.87;;;1.33;;
55879;SDS011;41802;51.564;-1.838;2023-07-30T09:48:00;9.65;;;1.88;;
55879;SDS011;41802;51.564;-1.838;2023-07-30T09:50:29;7.82;;;1.67;;
55879;SDS011;41802;51.564;-1.838;2023-07-30T09:52:58;8.80;;;1.50;;
55879;SDS011;41802;51.564;-1.838;2023-07-30T09:55:26;9.60;;;1.92;;
55879;SDS011;41802;51.564;-1.838;2023-07-30T09:57:53;7.60;;;1.83;;
55879;SDS011;41802;51.564;-1.838;2023-07-30T10:00:23;8.02;;;1.48;;
55879;SDS011;41802;51.564;-1.838;2023-07-30T10:02:51;7.00;;;1.55;;
55879;SDS011;41802;51.564;-1.838;2023-07-30T10:05:20;8.50;;;1.40;;
55879;SDS011;41802;51.564;-1.838;2023-07-30T10:07:51;6.10;;;1.20;;
55879;SDS011;41802;51.564;-1.838;2023-07-30T10:10:20;7.57;;;1.90;;
55879;SDS011;41802;51.564;-1.838;2023-07-30T10:12:52;5.47;;;1.30;;
55879;SDS011;41802;51.564;-1.838;2023-07-30T10:15:20;5.57;;;1.00;;
55879;SDS011;41802;51.564;-1.838;2023-07-30T10:17:51;5.55;;;1.00;;
55879;SDS011;41802;51.564;-1.838;2023-07-30T10:20:20;4.63;;;1.00;;
55879;SDS011;41802;51.564;-1.838;2023-07-30T10:22:51;4.63;;;0.87;;
55879;SDS011;41802;51.564;-1.838;2023-07-30T10:25:21;3.90;;;0.75;;
55879;SDS011;41802;51.564;-1.838;2023-07-30T10:27:51;3.85;;;0.60;;
55879;SDS011;41802;51.564;-1.838;2023-07-30T10:30:20;4.68;;;1.00;;
55879;SDS011;41802;51.564;-1.838;2023-07-30T10:32:59;4.72;;;1.13;;
55879;SDS011;41802;51.564;-1.838;2023-07-30T10:35:41;3.93;;;0.90;;
55879;SDS011;41802;51.564;-1.838;2023-07-30T10:38:16;4.63;;;0.90;;
55879;SDS011;41802;51.564;-1.838;2023-07-30T10:40:59;3.95;;;0.90;;
55879;SDS011;41802;51.564;-1.838;2023-07-30T10:43:28;4.05;;;0.80;;
55879;SDS011;41802;51.564;-1.838;2023-07-30T10:45:56;4.85;;;0.85;;
55879;SDS011;41802;51.564;-1.838;2023-07-30T10:48:34;3.00;;;0.63;;
55879;SDS011;41802;51.564;-1.838;2023-07-30T10:51:02;4.80;;;0.82;;
55879;SDS011;41802;51.564;-1.838;2023-07-30T10:53:30;3.53;;;0.80;;
55879;SDS011;41802;51.564;-1.838;2023-07-30T10:55:58;3.67;;;0.88;;
55879;SDS011;41802;51.564;-1.838;2023-07-30T10:58:28;3.75;;;0.90;;
55879;SDS011;41802;51.564;-1.838;2023-07-30T11:00:57;4.30;;;0.97;;
55879;SDS011;41802;51.564;-1.838;2023-07-30T11:03:25;5.45;;;1.05;;
55879;SDS011;41802;51.564;-1.838;2023-07-30T11:05:55;4.25;;;1.25;;
55879;SDS011;41802;51.564;-1.838;2023-07-30T11:08:31;4.78;;;1.17;;
55879;SDS011;41802;51.564;-1.838;2023-07-30T11:10:59;4.78;;;1.25;;
55879;SDS011;41802;51.564;-1.838;2023-07-30T11:13:28;4.93;;;1.00;;
55879;SDS011;41802;51.564;-1.838;2023-07-30T11:15:56;5.30;;;1.30;;
55879;SDS011;41802;51.564;-1.838;2023-07-30T11:18:24;4.88;;;1.02;;
55879;SDS011;41802;51.564;-1.838;2023-07-30T11:21:03;8.13;;;1.70;;
55879;SDS011;41802;51.564;-1.838;2023-07-30T11:23:30;6.65;;;1.63;;
55879;SDS011;41802;51.564;-1.838;2023-07-30T11:25:59;6.77;;;1.10;;
55879;SDS011;41802;51.564;-1.838;2023-07-30T11:28:27;6.38;;;1.17;;
55879;SDS011;41802;51.564;-1.838;2023-07-30T11:30:58;5.50;;;1.55;;
55879;SDS011;41802;51.564;-1.838;2023-07-30T11:33:27;6.18;;;1.38;;
55879;SDS011;41802;51.564;-1.838;2023-07-30T11:35:55;4.72;;;1.23;;
55879;SDS011;41802;51.564;-1.838;2023-07-30T11:38:25;5.17;;;1.30;;
55879;SDS011;41802;51.564;-1.838;2023-07-30T11:40:53;5.20;;;1.27;;
55879;SDS011;41802;51.564;-1.838;2023-07-30T11:43:22;5.60;;;1.33;;
55879;SDS011;41802;51.564;-1.838;2023-07-30T11:46:02;5.15;;;1.60;;
55879;SDS011;41802;51.564;-1.838;2023-07-30T11:48:34;6.38;;;1.70;;
55879;SDS011;41802;51.564;-1.838;2023-07-30T11:51:02;6.83;;;1.40;;
55879;SDS011;41802;51.564;-1.838;2023-07-30T11:53:47;6.35;;;1.40;;
55879;SDS011;41802;51.564;-1.838;2023-07-30T11:56:16;7.13;;;1.33;;
55879;SDS011;41802;51.564;-1.838;2023-07-30T11:58:45;5.25;;;0.98;;
55879;SDS011;41802;51.564;-1.838;2023-07-30T12:01:13;6.95;;;1.13;;
55879;SDS011;41802;51.564;-1.838;2023-07-30T12:03:41;5.00;;;0.93;;
55879;SDS011;41802;51.564;-1.838;2023-07-30T12:06:09;4.85;;;0.90;;
55879;SDS011;41802;51.564;-1.838;2023-07-30T12:08:39;5.10;;;0.90;;
55879;SDS011;41802;51.564;-1.838;2023-07-30T12:11:09;5.43;;;1.00;;
55879;SDS011;41802;51.564;-1.838;2023-07-30T12:13:43;4.65;;;1.13;;
55879;SDS011;41802;51.564;-1.838;2023-07-30T12:16:12;5.93;;;1.17;;
55879;SDS011;41802;51.564;-1.838;2023-07-30T12:18:45;4.10;;;1.15;;
55879;SDS011;41802;51.564;-1.838;2023-07-30T12:21:12;5.78;;;1.45;;
55879;SDS011;41802;51.564;-1.838;2023-07-30T12:23:40;4.60;;;1.15;;
55879;SDS011;41802;51.564;-1.838;2023-07-30T12:26:10;3.70;;;0.80;;
55879;SDS011;41802;51.564;-1.838;2023-07-30T12:28:37;4.30;;;0.83;;
55879;SDS011;41802;51.564;-1.838;2023-07-30T12:31:06;3.58;;;0.90;;
55879;SDS011;41802;51.564;-1.838;2023-07-30T12:33:33;4.47;;;0.70;;
55879;SDS011;41802;51.564;-1.838;2023-07-30T12:36:01;3.90;;;0.73;;
55879;SDS011;41802;51.564;-1.838;2023-07-30T12:38:29;3.95;;;0.98;;
55879;SDS011;41802;51.564;-1.838;2023-07-30T12:40:56;2.90;;;0.63;;
55879;SDS011;41802;51.564;-1.838;2023-07-30T12:43:25;3.40;;;0.80;;
55879;SDS011;41802;51.564;-1.838;2023-07-30T12:45:53;4.38;;;0.82;;
55879;SDS011;41802;51.564;-1.838;2023-07-30T12:48:21;3.85;;;0.95;;
55879;SDS011;41802;51.564;-1.838;2023-07-30T12:50:49;3.78;;;0.90;;
55879;SDS011;41802;51.564;-1.838;2023-07-30T12:53:16;4.33;;;1.00;;
55879;SDS011;41802;51.564;-1.838;2023-07-30T12:55:44;4.32;;;1.25;;
55879;SDS011;41802;51.564;-1.838;2023-07-30T12:58:12;4.80;;;1.35;;
55879;SDS011;41802;51.564;-1.838;2023-07-30T13:00:45;4.28;;;1.13;;
55879;SDS011;41802;51.564;-1.838;2023-07-30T13:03:13;5.25;;;1.08;;
55879;SDS011;41802;51.564;-1.838;2023-07-30T13:05:40;3.63;;;0.80;;
55879;SDS011;41802;51.564;-1.838;2023-07-30T13:08:09;3.80;;;0.52;;
55879;SDS011;41802;51.564;-1.838;2023-07-30T13:10:36;4.20;;;0.70;;
55879;SDS011;41802;51.564;-1.838;2023-07-30T13:13:04;3.67;;;0.80;;
55879;SDS011;41802;51.564;-1.838;2023-07-30T13:15:32;3.90;;;1.10;;
55879;SDS011;41802;51.564;-1.838;2023-07-30T13:18:01;4.80;;;1.53;;
55879;SDS011;41802;51.564;-1.838;2023-07-30T13:20:29;2.97;;;0.65;;
55879;SDS011;41802;51.564;-1.838;2023-07-30T13:22:57;3.17;;;0.70;;
55879;SDS011;41802;51.564;-1.838;2023-07-30T13:25:25;2.75;;;0.60;;
55879;SDS011;41802;51.564;-1.838;2023-07-30T13:27:52;4.03;;;0.85;;
55879;SDS011;41802;51.564;-1.838;2023-07-30T13:30:24;3.73;;;0.80;;
55879;SDS011;41802;51.564;-1.838;2023-07-30T13:32:51;3.00;;;0.50;;
55879;SDS011;41802;51.564;-1.838;2023-07-30T13:35:20;4.15;;;0.90;;
55879;SDS011;41802;51.564;-1.838;2023-07-30T13:37:48;3.97;;;0.73;;
55879;SDS011;41802;51.564;-1.838;2023-07-30T13:40:16;3.72;;;0.95;;
55879;SDS011;41802;51.564;-1.838;2023-07-30T13:42:44;2.33;;;0.50;;
55879;SDS011;41802;51.564;-1.838;2023-07-30T13:45:11;3.85;;;0.60;;
55879;SDS011;41802;51.564;-1.838;2023-07-30T13:47:42;3.65;;;0.80;;
55879;SDS011;41802;51.564;-1.838;2023-07-30T13:50:10;4.18;;;0.60;;
55879;SDS011;41802;51.564;-1.838;2023-07-30T13:52:39;4.72;;;0.90;;
55879;SDS011;41802;51.564;-1.838;2023-07-30T13:55:07;7.17;;;1.00;;
55879;SDS011;41802;51.564;-1.838;2023-07-30T13:57:35;5.78;;;1.40;;
55879;SDS011;41802;51.564;-1.838;2023-07-30T14:00:03;6.40;;;0.93;;
55879;SDS011;41802;51.564;-1.838;2023-07-30T14:02:31;6.20;;;1.33;;
55879;SDS011;41802;51.564;-1.838;2023-07-30T14:04:59;9.68;;;1.98;;
55879;SDS011;41802;51.564;-1.838;2023-07-30T14:07:27;9.43;;;1.27;;
55879;SDS011;41802;51.564;-1.838;2023-07-30T14:09:56;8.93;;;2.30;;
55879;SDS011;41802;51.564;-1.838;2023-07-30T14:12:24;9.32;;;1.95;;
55879;SDS011;41802;51.564;-1.838;2023-07-30T14:14:51;10.10;;;2.35;;
55879;SDS011;41802;51.564;-1.838;2023-07-30T14:17:19;7.82;;;2.00;;
55879;SDS011;41802;51.564;-1.838;2023-07-30T14:19:47;9.40;;;2.10;;
55879;SDS011;41802;51.564;-1.838;2023-07-30T14:22:14;10.75;;;2.58;;
55879;SDS011;41802;51.564;-1.838;2023-07-30T14:24:42;10.48;;;2.70;;
55879;SDS011;41802;51.564;-1.838;2023-07-30T14:27:13;5.95;;;1.90;;
55879;SDS011;41802;51.564;-1.838;2023-07-30T14:29:41;7.82;;;2.22;;
55879;SDS011;41802;51.564;-1.838;2023-07-30T14:32:09;13.50;;;2.80;;
55879;SDS011;41802;51.564;-1.838;2023-07-30T14:34:37;10.30;;;2.53;;
55879;SDS011;41802;51.564;-1.838;2023-07-30T14:37:04;9.65;;;2.22;;